Time,TemperatureF,DewpointF,PressureIn,WindDirection,WindDirectionDegrees,WindSpeedMPH,WindSpeedGustMPH,Humidity,HourlyPrecipIn,Conditions,Clouds,dailyrainin,SoftwareType,DateUTC
2013-04-15 00:03:00,47.0,41.0,30.15,West,263,0.0,1.0,79,0.00,,,0.00,,2013-04-15 04:03:00,
2013-04-15 00:13:00,47.0,41.0,30.15,West,263,0.0,1.0,79,0.00,,,0.00,,2013-04-15 04:13:00,
2013-04-15 00:23:00,47.0,41.0,30.15,West,263,0.0,1.0,79,0.00,,,0.00,,2013-04-15 04:23:00,
2013-04-15 00:33:00,51.0,37.0,30.16,East,94,2.0,7.0,58,0.00,,,0.00,,2013-04-15 04:33:00,
2013-04-15 00:43:00,51.0,37.0,30.16,East,94,2.0,7.0,58,0.00,,,0.00,,2013-04-15 04:43:00,
2013-04-15 00:53:00,51.0,37.0,30.16,East,94,2.0,7.0,58,0.00,,,0.00,,2013-04-15 04:53:00,
2013-04-15 01:03:00,51.0,34.0,30.17,ESE,103,2.0,7.0,53,0.00,,,0.00,,2013-04-15 05:03:00,
2013-04-15 01:13:00,51.0,34.0,30.17,ESE,103,2.0,7.0,53,0.00,,,0.00,,2013-04-15 05:13:00,
2013-04-15 01:23:00,50.0,34.0,30.17,East,88,1.0,5.0,53,0.00,,,0.00,,2013-04-15 05:23:00,
2013-04-15 01:33:00,50.0,34.0,30.18,ENE,71,0.0,7.0,54,0.00,,,0.00,,2013-04-15 05:33:00,
2013-04-15 01:42:00,50.0,34.0,30.18,ENE,71,0.0,7.0,54,0.00,,,0.00,,2013-04-15 05:42:00,
2013-04-15 01:53:00,50.0,34.0,30.18,ENE,78,1.0,6.0,54,0.00,,,0.00,,2013-04-15 05:53:00,
2013-04-15 02:02:00,49.0,33.0,30.19,ESE,107,1.0,5.0,54,0.00,,,0.00,,2013-04-15 06:02:00,
2013-04-15 02:12:00,49.0,33.0,30.19,ESE,107,1.0,5.0,54,0.00,,,0.00,,2013-04-15 06:12:00,
2013-04-15 02:23:00,49.0,33.0,30.19,ESE,107,1.0,5.0,54,0.00,,,0.00,,2013-04-15 06:23:00,
2013-04-15 02:33:00,49.0,33.0,30.19,ESE,107,1.0,5.0,54,0.00,,,0.00,,2013-04-15 06:33:00,
2013-04-15 02:42:00,49.0,33.0,30.19,ESE,107,1.0,5.0,54,0.00,,,0.00,,2013-04-15 06:42:00,
2013-04-15 02:53:00,49.0,34.0,30.21,SE,132,0.0,5.0,56,0.00,,,0.00,,2013-04-15 06:53:00,
2013-04-15 03:03:00,49.0,34.0,30.21,ESE,115,1.0,5.0,56,0.00,,,0.00,,2013-04-15 07:03:00,
2013-04-15 03:42:00,49.0,34.0,30.21,ESE,115,1.0,5.0,56,0.00,,,0.00,,2013-04-15 07:42:00,
2013-04-15 03:43:00,48.0,33.0,30.23,ESE,111,1.0,7.0,56,0.00,,,0.00,,2013-04-15 07:43:00,
2013-04-15 03:54:00,48.0,34.0,30.23,SE,130,1.0,5.0,57,0.00,,,0.00,,2013-04-15 07:54:00,
2013-04-15 04:03:00,48.0,34.0,30.23,ESE,123,0.0,2.0,59,0.00,,,0.00,,2013-04-15 08:03:00,
2013-04-15 04:13:00,48.0,34.0,30.23,ESE,123,0.0,2.0,59,0.00,,,0.00,,2013-04-15 08:13:00,
2013-04-15 04:22:00,48.0,34.0,30.23,ESE,123,0.0,2.0,59,0.00,,,0.00,,2013-04-15 08:22:00,
2013-04-15 04:33:00,48.0,35.0,30.24,ESE,113,1.0,2.0,60,0.00,,,0.00,,2013-04-15 08:33:00,
2013-04-15 04:42:00,48.0,35.0,30.24,ESE,113,1.0,2.0,60,0.00,,,0.00,,2013-04-15 08:42:00,
2013-04-15 04:52:00,48.0,35.0,30.25,SE,146,1.0,3.0,60,0.00,,,0.00,,2013-04-15 08:52:00,
2013-04-15 05:03:00,48.0,35.0,30.25,SE,124,0.0,5.0,61,0.00,,,0.00,,2013-04-15 09:03:00,
2013-04-15 05:12:00,48.0,35.0,30.25,SE,124,0.0,5.0,61,0.00,,,0.00,,2013-04-15 09:12:00,
2013-04-15 05:23:00,47.0,34.0,30.25,East,85,2.0,5.0,60,0.00,,,0.00,,2013-04-15 09:23:00,
2013-04-15 05:33:00,47.0,34.0,30.25,East,83,1.0,7.0,61,0.00,,,0.00,,2013-04-15 09:33:00,
2013-04-15 05:43:00,47.0,34.0,30.25,East,83,1.0,7.0,61,0.00,,,0.00,,2013-04-15 09:43:00,
2013-04-15 05:53:00,47.0,34.0,30.25,East,83,1.0,7.0,61,0.00,,,0.00,,2013-04-15 09:53:00,
2013-04-15 06:02:00,47.0,35.0,30.26,SE,140,1.0,5.0,63,0.00,,,0.00,,2013-04-15 10:02:00,
2013-04-15 06:13:00,47.0,35.0,30.26,SE,140,1.0,5.0,63,0.00,,,0.00,,2013-04-15 10:13:00,
2013-04-15 06:23:00,47.0,35.0,30.27,ESE,108,1.0,6.0,63,0.00,,,0.00,,2013-04-15 10:23:00,
2013-04-15 06:33:00,46.0,34.0,30.27,ESE,119,1.0,5.0,63,0.00,,,0.00,,2013-04-15 10:33:00,
2013-04-15 06:42:00,46.0,34.0,30.27,ESE,119,1.0,5.0,63,0.00,,,0.00,,2013-04-15 10:42:00,
2013-04-15 06:53:00,46.0,35.0,30.27,East,83,2.0,7.0,64,0.00,,,0.00,,2013-04-15 10:53:00,
2013-04-15 07:03:00,46.0,35.0,30.28,East,90,2.0,5.0,64,0.00,,,0.00,,2013-04-15 11:03:00,
2013-04-15 07:12:00,46.0,35.0,30.28,East,90,2.0,5.0,64,0.00,,,0.00,,2013-04-15 11:12:00,
2013-04-15 07:23:00,46.0,35.0,30.29,ESE,122,1.0,4.0,64,0.00,,,0.00,,2013-04-15 11:23:00,
2013-04-15 07:32:00,46.0,35.0,30.30,ESE,107,0.0,5.0,64,0.00,,,0.00,,2013-04-15 11:32:00,
2013-04-15 07:43:00,46.0,35.0,30.30,ESE,107,0.0,5.0,64,0.00,,,0.00,,2013-04-15 11:43:00,
2013-04-15 07:54:00,46.0,35.0,30.31,South,176,1.0,5.0,65,0.00,,,0.00,,2013-04-15 11:54:00,
2013-04-15 08:04:00,46.0,35.0,30.32,ESE,114,1.0,4.0,65,0.00,,,0.00,,2013-04-15 12:04:00,
2013-04-15 08:14:00,46.0,35.0,30.32,ESE,114,1.0,4.0,65,0.00,,,0.00,,2013-04-15 12:14:00,
2013-04-15 08:23:00,46.0,35.0,30.32,ESE,114,1.0,4.0,65,0.00,,,0.00,,2013-04-15 12:23:00,
2013-04-15 08:33:00,46.0,35.0,30.32,ESE,114,1.0,4.0,65,0.00,,,0.00,,2013-04-15 12:33:00,
2013-04-15 08:43:00,46.0,35.0,30.32,ESE,114,1.0,4.0,65,0.00,,,0.00,,2013-04-15 12:43:00,
2013-04-15 08:54:00,46.0,35.0,30.33,SSE,148,3.0,7.0,65,0.00,,,0.00,,2013-04-15 12:54:00,
2013-04-15 09:05:00,46.0,35.0,30.32,ESE,112,0.0,7.0,65,0.00,,,0.00,,2013-04-15 13:05:00,
2013-04-15 09:13:00,46.0,35.0,30.32,ESE,112,0.0,7.0,65,0.00,,,0.00,,2013-04-15 13:13:00,
2013-04-15 09:23:00,47.0,35.0,30.32,East,87,2.0,6.0,64,0.00,,,0.00,,2013-04-15 13:23:00,
2013-04-15 09:33:00,47.0,34.0,30.32,ESE,113,3.0,8.0,61,0.00,,,0.00,,2013-04-15 13:33:00,
2013-04-15 09:43:00,47.0,34.0,30.32,ESE,113,3.0,8.0,61,0.00,,,0.00,,2013-04-15 13:43:00,
2013-04-15 09:54:00,48.0,35.0,30.31,ENE,69,2.0,4.0,61,0.00,,,0.00,,2013-04-15 13:54:00,
2013-04-15 10:05:00,48.0,36.0,30.31,East,98,1.0,6.0,62,0.00,,,0.00,,2013-04-15 14:05:00,
2013-04-15 10:13:00,48.0,36.0,30.31,East,98,1.0,6.0,62,0.00,,,0.00,,2013-04-15 14:13:00,
2013-04-15 10:22:00,48.0,36.0,30.31,SSE,153,3.0,8.0,62,0.00,,,0.00,,2013-04-15 14:22:00,
2013-04-15 10:33:00,49.0,37.0,30.31,ENE,78,3.0,5.0,62,0.00,,,0.00,,2013-04-15 14:33:00,
2013-04-15 10:44:00,49.0,37.0,30.31,ENE,78,3.0,5.0,62,0.00,,,0.00,,2013-04-15 14:44:00,
2013-04-15 10:55:00,49.0,36.0,30.31,ESE,110,4.0,9.0,61,0.00,,,0.00,,2013-04-15 14:55:00,
2013-04-15 11:03:00,50.0,37.0,30.30,SSE,159,2.0,8.0,61,0.00,,,0.00,,2013-04-15 15:03:00,
2013-04-15 11:13:00,50.0,37.0,30.30,SSE,159,2.0,8.0,61,0.00,,,0.00,,2013-04-15 15:13:00,
2013-04-15 11:24:00,50.0,37.0,30.30,SSE,159,2.0,8.0,61,0.00,,,0.00,,2013-04-15 15:24:00,
2013-04-15 11:35:00,51.0,38.0,30.30,SSE,159,2.0,4.0,60,0.00,,,0.00,,2013-04-15 15:35:00,
2013-04-15 11:44:00,51.0,38.0,30.30,SSE,159,2.0,4.0,60,0.00,,,0.00,,2013-04-15 15:44:00,
2013-04-15 11:55:00,52.0,38.0,30.29,SE,128,3.0,6.0,59,0.00,,,0.00,,2013-04-15 15:55:00,
2013-04-15 12:05:00,54.0,39.0,30.29,East,87,2.0,6.0,57,0.00,,,0.00,,2013-04-15 16:05:00,
2013-04-15 12:14:00,54.0,39.0,30.29,ESE,109,4.0,8.0,56,0.00,,,0.00,,2013-04-15 16:14:00,
2013-04-15 12:24:00,54.0,39.0,30.29,ESE,109,4.0,8.0,56,0.00,,,0.00,,2013-04-15 16:24:00,
2013-04-15 12:33:00,55.0,40.0,30.29,ESE,109,2.0,6.0,57,0.00,,,0.00,,2013-04-15 16:33:00,
2013-04-15 12:44:00,55.0,40.0,30.29,ESE,109,2.0,6.0,57,0.00,,,0.00,,2013-04-15 16:44:00,
2013-04-15 12:54:00,55.0,40.0,30.29,ESE,109,2.0,6.0,57,0.00,,,0.00,,2013-04-15 16:54:00,
2013-04-15 13:04:00,57.0,41.0,30.29,ESE,104,3.0,7.0,54,0.00,,,0.00,,2013-04-15 17:04:00,
2013-04-15 13:15:00,57.0,41.0,30.29,ESE,104,3.0,7.0,54,0.00,,,0.00,,2013-04-15 17:15:00,
2013-04-15 13:22:00,57.0,41.0,30.29,ESE,104,3.0,7.0,54,0.00,,,0.00,,2013-04-15 17:22:00,
2013-04-15 13:33:00,57.0,41.0,30.29,SW,225,2.0,6.0,56,0.00,,,0.00,,2013-04-15 17:33:00,
2013-04-15 13:43:00,57.0,41.0,30.29,SW,225,2.0,6.0,56,0.00,,,0.00,,2013-04-15 17:43:00,
2013-04-15 13:53:00,55.0,42.0,30.29,South,181,4.0,9.0,61,0.00,,,0.00,,2013-04-15 17:53:00,
2013-04-15 14:03:00,55.0,43.0,30.28,SSE,165,2.0,5.0,64,0.00,,,0.00,,2013-04-15 18:03:00,
2013-04-15 14:13:00,55.0,43.0,30.28,SSE,165,2.0,5.0,64,0.00,,,0.00,,2013-04-15 18:13:00,
2013-04-15 14:24:00,55.0,43.0,30.27,SSW,213,1.0,4.0,64,0.00,,,0.00,,2013-04-15 18:24:00,
2013-04-15 14:33:00,55.0,43.0,30.27,SSW,213,1.0,4.0,64,0.00,,,0.00,,2013-04-15 18:33:00,
2013-04-15 14:42:00,55.0,43.0,30.27,SSW,213,1.0,4.0,64,0.00,,,0.00,,2013-04-15 18:42:00,
2013-04-15 14:52:00,56.0,44.0,30.28,SE,142,2.0,6.0,64,0.00,,,0.00,,2013-04-15 18:52:00,
2013-04-15 15:02:00,57.0,44.0,30.28,SSW,195,2.0,5.0,61,0.00,,,0.00,,2013-04-15 19:02:00,
2013-04-15 15:12:00,57.0,44.0,30.28,SSW,195,2.0,5.0,61,0.00,,,0.00,,2013-04-15 19:12:00,
2013-04-15 15:22:00,57.0,43.0,30.28,East,84,1.0,7.0,59,0.00,,,0.00,,2013-04-15 19:22:00,
2013-04-15 15:38:00,58.0,44.0,30.27,SE,142,1.0,7.0,59,0.00,,,0.00,,2013-04-15 19:38:00,
2013-04-15 15:53:00,58.0,44.0,30.27,SE,142,1.0,7.0,59,0.00,,,0.00,,2013-04-15 19:53:00,
2013-04-15 16:01:00,59.0,45.0,30.27,South,183,4.0,8.0,59,0.00,,,0.00,,2013-04-15 20:01:00,
2013-04-15 16:02:00,59.0,45.0,30.27,South,183,4.0,8.0,59,0.00,,,0.00,,2013-04-15 20:02:00,
2013-04-15 16:11:00,59.0,45.0,30.27,South,183,4.0,8.0,59,0.00,,,0.00,,2013-04-15 20:11:00,
2013-04-15 16:22:00,59.0,45.0,30.27,ESE,120,3.0,7.0,59,0.00,,,0.00,,2013-04-15 20:22:00,
2013-04-15 16:32:00,59.0,44.0,30.27,SW,229,4.0,7.0,57,0.00,,,0.00,,2013-04-15 20:32:00,
2013-04-15 16:42:00,59.0,44.0,30.27,SW,229,4.0,7.0,57,0.00,,,0.00,,2013-04-15 20:42:00,
2013-04-15 16:52:00,59.0,44.0,30.26,WSW,243,2.0,7.0,57,0.00,,,0.00,,2013-04-15 20:52:00,
2013-04-15 17:02:00,58.0,43.0,30.26,SSE,150,2.0,7.0,57,0.00,,,0.00,,2013-04-15 21:02:00,
2013-04-15 17:12:00,58.0,43.0,30.26,SSE,150,2.0,7.0,57,0.00,,,0.00,,2013-04-15 21:12:00,
2013-04-15 17:22:00,58.0,44.0,30.27,SSE,155,3.0,9.0,60,0.00,,,0.00,,2013-04-15 21:22:00,
2013-04-15 17:33:00,58.0,43.0,30.27,ESE,105,4.0,8.0,58,0.00,,,0.00,,2013-04-15 21:33:00,
2013-04-15 17:43:00,58.0,43.0,30.27,ESE,105,4.0,8.0,58,0.00,,,0.00,,2013-04-15 21:43:00,
2013-04-15 17:53:00,57.0,43.0,30.28,SW,219,3.0,6.0,60,0.00,,,0.00,,2013-04-15 21:53:00,
2013-04-15 18:02:00,57.0,44.0,30.28,SSE,151,1.0,3.0,61,0.00,,,0.00,,2013-04-15 22:02:00,
2013-04-15 18:13:00,57.0,44.0,30.28,SSE,151,1.0,3.0,61,0.00,,,0.00,,2013-04-15 22:13:00,
2013-04-15 18:23:00,57.0,44.0,30.28,SSE,151,1.0,3.0,61,0.00,,,0.00,,2013-04-15 22:23:00,
2013-04-15 18:33:00,57.0,44.0,30.28,SSE,151,1.0,3.0,61,0.00,,,0.00,,2013-04-15 22:33:00,
2013-04-15 18:42:00,57.0,44.0,30.28,SSE,151,1.0,3.0,61,0.00,,,0.00,,2013-04-15 22:42:00,
2013-04-15 18:52:00,55.0,42.0,30.29,South,170,1.0,4.0,61,0.00,,,0.00,,2013-04-15 22:52:00,
2013-04-15 19:02:00,55.0,42.0,30.29,ESE,113,0.0,4.0,62,0.00,,,0.00,,2013-04-15 23:02:00,
2013-04-15 19:12:00,55.0,42.0,30.29,ESE,113,0.0,4.0,62,0.00,,,0.00,,2013-04-15 23:12:00,
2013-04-15 19:22:00,55.0,43.0,30.29,South,190,1.0,4.0,63,0.00,,,0.00,,2013-04-15 23:22:00,
2013-04-15 19:32:00,54.0,42.0,30.29,ESE,123,2.0,6.0,64,0.00,,,0.00,,2013-04-15 23:32:00,
2013-04-15 19:42:00,54.0,42.0,30.29,ESE,123,2.0,6.0,64,0.00,,,0.00,,2013-04-15 23:42:00,
2013-04-15 19:52:00,54.0,42.0,30.30,SE,136,2.0,6.0,64,0.00,,,0.00,,2013-04-15 23:52:00,
2013-04-15 20:02:00,53.0,42.0,30.30,ESE,105,0.0,4.0,65,0.00,,,0.00,,2013-04-16 00:02:00,
2013-04-15 20:12:00,53.0,42.0,30.30,ESE,105,0.0,4.0,65,0.00,,,0.00,,2013-04-16 00:12:00,
2013-04-15 20:22:00,53.0,42.0,30.31,SE,138,1.0,5.0,65,0.00,,,0.00,,2013-04-16 00:22:00,
2013-04-15 20:32:00,53.0,42.0,30.32,East,91,2.0,5.0,65,0.00,,,0.00,,2013-04-16 00:32:00,
2013-04-15 20:42:00,53.0,42.0,30.32,East,91,2.0,5.0,65,0.00,,,0.00,,2013-04-16 00:42:00,
2013-04-15 20:52:00,53.0,42.0,30.32,SSE,162,1.0,3.0,66,0.00,,,0.00,,2013-04-16 00:52:00,
2013-04-15 21:02:00,53.0,42.0,30.32,NE,36,1.0,3.0,67,0.00,,,0.00,,2013-04-16 01:02:00,
2013-04-15 21:12:00,52.0,42.0,30.32,East,101,2.0,3.0,68,0.00,,,0.00,,2013-04-16 01:12:00,
2013-04-15 21:22:00,52.0,42.0,30.32,East,101,2.0,3.0,68,0.00,,,0.00,,2013-04-16 01:22:00,
2013-04-15 21:32:00,52.0,43.0,30.32,South,169,0.0,4.0,70,0.00,,,0.00,,2013-04-16 01:32:00,
2013-04-15 21:42:00,52.0,43.0,30.32,South,169,0.0,4.0,70,0.00,,,0.00,,2013-04-16 01:42:00,
2013-04-15 21:52:00,52.0,43.0,30.32,South,180,2.0,4.0,71,0.00,,,0.00,,2013-04-16 01:52:00,
2013-04-15 22:02:00,52.0,44.0,30.33,South,173,1.0,4.0,73,0.00,,,0.00,,2013-04-16 02:02:00,
2013-04-15 22:12:00,52.0,44.0,30.33,South,173,1.0,4.0,73,0.00,,,0.00,,2013-04-16 02:12:00,
2013-04-15 22:22:00,52.0,44.0,30.32,ESE,118,1.0,5.0,73,0.00,,,0.00,,2013-04-16 02:22:00,
2013-04-15 22:32:00,52.0,44.0,30.33,SSE,154,0.0,4.0,74,0.00,,,0.00,,2013-04-16 02:32:00,
2013-04-15 22:42:00,52.0,44.0,30.33,SSE,154,0.0,4.0,74,0.00,,,0.00,,2013-04-16 02:42:00,
2013-04-15 22:52:00,52.0,44.0,30.33,SSW,213,0.0,3.0,74,0.00,,,0.00,,2013-04-16 02:52:00,
2013-04-15 23:02:00,51.0,43.0,30.33,SSE,154,1.0,4.0,74,0.00,,,0.00,,2013-04-16 03:02:00,
2013-04-15 23:12:00,51.0,43.0,30.33,SSE,154,1.0,4.0,74,0.00,,,0.00,,2013-04-16 03:12:00,
2013-04-15 23:22:00,51.0,43.0,30.34,SSE,166,0.0,3.0,75,0.00,,,0.00,,2013-04-16 03:22:00,
2013-04-15 23:33:00,51.0,43.0,30.34,South,188,0.0,3.0,75,0.00,,,0.00,,2013-04-16 03:33:00,
2013-04-15 23:43:00,51.0,43.0,30.34,South,188,0.0,3.0,75,0.00,,,0.00,,2013-04-16 03:43:00,
2013-04-15 23:53:00,51.0,43.0,30.33,SE,132,0.0,5.0,75,0.00,,,0.00,,2013-04-16 03:53:00,